TimeEDT,TemperatureF,Dew PointF,Humidity,Sea Level PressureIn,VisibilityMPH,Wind Direction,Wind SpeedMPH,Gust SpeedMPH,PrecipitationIn,Events,Conditions,WindDirDegrees,DateUTC
12:15 AM,60.8,59.0,94,30.10,10.0,Calm,Calm,-,N/A,,Clear,0,2013-05-16 04:15:00
12:35 AM,60.8,59.0,94,30.10,10.0,Calm,Calm,-,N/A,,Clear,0,2013-05-16 04:35:00
12:53 AM,60.1,57.0,90,30.09,-9999.0,Calm,Calm,-,N/A,,Unknown,0,2013-05-16 04:53:00
12:55 AM,59.0,57.2,94,30.10,10.0,Calm,Calm,-,N/A,,Clear,0,2013-05-16 04:55:00
1:15 AM,59.0,57.2,94,30.10,3.0,Calm,Calm,-,N/A,,Clear,0,2013-05-16 05:15:00
1:35 AM,59.0,57.2,94,30.09,1.5,Calm,Calm,-,N/A,,Mist,0,2013-05-16 05:35:00
1:53 AM,57.0,55.9,96,30.07,-9999.0,Calm,Calm,-,N/A,,Unknown,0,2013-05-16 05:53:00
1:55 AM,57.2,55.4,94,30.08,4.0,Calm,Calm,-,N/A,,Clear,0,2013-05-16 05:55:00
2:15 AM,57.2,55.4,94,30.07,5.0,Calm,Calm,-,N/A,,Clear,0,2013-05-16 06:15:00
2:35 AM,57.2,55.4,94,30.05,5.0,Calm,Calm,-,N/A,,Clear,0,2013-05-16 06:35:00
2:53 AM,59.0,55.9,90,30.04,-9999.0,Calm,Calm,-,N/A,,Unknown,0,2013-05-16 06:53:00
2:55 AM,57.2,55.4,94,30.05,7.0,Calm,Calm,-,N/A,,Clear,0,2013-05-16 06:55:00
3:15 AM,55.4,55.4,100,30.05,5.0,Calm,Calm,-,N/A,,Clear,0,2013-05-16 07:15:00
3:35 AM,57.2,55.4,94,30.06,7.0,West,3.5,-,N/A,,Clear,280,2013-05-16 07:35:00
3:53 AM,60.1,57.0,90,30.06,-9999.0,ESE,5.8,-,N/A,,Unknown,120,2013-05-16 07:53:00
3:55 AM,59.0,57.2,94,30.07,10.0,ESE,5.8,-,N/A,,Clear,120,2013-05-16 07:55:00
4:15 AM,59.0,59.0,100,30.07,7.0,ESE,3.5,-,N/A,,Clear,120,2013-05-16 08:15:00
4:35 AM,59.0,59.0,100,30.07,7.0,Calm,Calm,-,N/A,,Clear,0,2013-05-16 08:35:00
4:53 AM,61.0,57.9,90,30.06,-9999.0,Calm,Calm,-,0.01,,Unknown,0,2013-05-16 08:53:00
4:55 AM,59.0,59.0,100,30.07,7.0,Calm,Calm,-,N/A,,Clear,0,2013-05-16 08:55:00
5:15 AM,59.0,57.2,94,30.08,3.0,Calm,Calm,-,N/A,,Clear,0,2013-05-16 09:15:00
5:35 AM,59.0,59.0,100,30.08,1.5,Calm,Calm,-,N/A,,Mist,0,2013-05-16 09:35:00
5:53 AM,60.1,57.9,93,30.08,-9999.0,Calm,Calm,-,0.01,,Unknown,0,2013-05-16 09:53:00
5:55 AM,59.0,57.2,94,30.09,2.0,Calm,Calm,-,N/A,,Clear,0,2013-05-16 09:55:00
6:15 AM,59.0,57.2,94,30.09,1.2,Calm,Calm,-,N/A,,Mist,0,2013-05-16 10:15:00
6:35 AM,57.2,55.4,94,30.10,1.2,Calm,Calm,-,N/A,,Mist,0,2013-05-16 10:35:00
6:53 AM,59.0,55.9,90,30.09,-9999.0,Calm,Calm,-,N/A,,Unknown,0,2013-05-16 10:53:00
6:55 AM,57.2,55.4,94,30.11,0.5,Calm,Calm,-,N/A,Fog,Fog,0,2013-05-16 10:55:00
7:15 AM,57.2,55.4,94,30.12,0.2,Calm,Calm,-,N/A,Fog,Fog,0,2013-05-16 11:15:00
7:35 AM,59.0,57.2,94,30.13,3.0,Calm,Calm,-,N/A,,Clear,0,2013-05-16 11:35:00
7:53 AM,61.0,57.9,90,30.12,-9999.0,Calm,Calm,-,N/A,,Unknown,0,2013-05-16 11:53:00
7:55 AM,59.0,59.0,100,30.13,3.0,Calm,Calm,-,N/A,,Clear,0,2013-05-16 11:55:00
8:15 AM,60.8,59.0,94,30.13,4.0,Calm,Calm,-,N/A,,Clear,0,2013-05-16 12:15:00
8:35 AM,62.6,62.6,100,30.14,7.0,Calm,Calm,-,N/A,,Clear,0,2013-05-16 12:35:00
8:53 AM,69.1,62.1,78,30.13,-9999.0,Calm,Calm,-,N/A,,Unknown,0,2013-05-16 12:53:00
8:55 AM,64.4,64.4,100,30.14,10.0,Calm,Calm,-,N/A,,Clear,0,2013-05-16 12:55:00
9:15 AM,68.0,64.4,88,30.14,10.0,Calm,Calm,-,N/A,,Clear,0,2013-05-16 13:15:00
9:35 AM,69.8,64.4,83,30.14,10.0,ESE,3.5,-,N/A,,Clear,110,2013-05-16 13:35:00
9:53 AM,73.9,61.0,64,30.13,-9999.0,Calm,Calm,-,N/A,,Unknown,0,2013-05-16 13:53:00
9:55 AM,71.6,62.6,73,30.14,10.0,East,3.5,-,N/A,,Clear,100,2013-05-16 13:55:00
10:15 AM,71.6,60.8,69,30.14,10.0,Calm,Calm,-,N/A,,Clear,0,2013-05-16 14:15:00
10:35 AM,73.4,60.8,65,30.15,10.0,Calm,Calm,-,N/A,,Clear,0,2013-05-16 14:35:00
10:53 AM,78.1,61.0,56,30.14,-9999.0,Calm,Calm,-,N/A,,Unknown,0,2013-05-16 14:53:00
10:55 AM,73.4,60.8,65,30.15,10.0,Calm,Calm,-,N/A,,Clear,0,2013-05-16 14:55:00
11:15 AM,75.2,60.8,61,30.15,10.0,Calm,Calm,-,N/A,,Clear,0,2013-05-16 15:15:00
11:35 AM,77.0,62.6,61,30.14,10.0,South,5.8,-,N/A,,Clear,190,2013-05-16 15:35:00
11:53 AM,79.0,62.1,56,30.13,-9999.0,West,6.9,-,N/A,,Unknown,260,2013-05-16 15:53:00
11:55 AM,77.0,60.8,57,30.14,10.0,West,5.8,-,N/A,,Clear,260,2013-05-16 15:55:00
12:15 PM,77.0,60.8,57,30.14,10.0,SSW,8.1,-,N/A,,Clear,210,2013-05-16 16:15:00
12:35 PM,78.8,60.8,54,30.13,10.0,SSW,4.6,-,N/A,,Clear,210,2013-05-16 16:35:00
12:53 PM,80.1,62.1,54,30.12,-9999.0,WSW,6.9,-,N/A,,Unknown,240,2013-05-16 16:53:00
12:55 PM,78.8,60.8,54,30.13,10.0,WSW,5.8,-,N/A,,Scattered Clouds,240,2013-05-16 16:55:00
1:15 PM,78.8,60.8,54,30.12,10.0,SW,8.1,-,N/A,,Scattered Clouds,230,2013-05-16 17:15:00
1:35 PM,78.8,62.6,57,30.11,10.0,WSW,6.9,-,N/A,,Clear,250,2013-05-16 17:35:00
1:53 PM,81.0,62.1,52,30.09,-9999.0,Variable,3.5,-,N/A,,Unknown,0,2013-05-16 17:53:00
1:55 PM,78.8,60.8,54,30.10,10.0,SW,3.5,-,N/A,,Clear,220,2013-05-16 17:55:00
2:15 PM,80.6,60.8,51,30.10,10.0,South,4.6,-,N/A,,Clear,190,2013-05-16 18:15:00
2:35 PM,80.6,62.6,54,30.09,10.0,South,5.8,-,N/A,,Clear,180,2013-05-16 18:35:00
2:53 PM,84.0,62.1,47,30.07,-9999.0,SE,9.2,-,N/A,,Unknown,130,2013-05-16 18:53:00
2:55 PM,80.6,60.8,51,30.08,10.0,SE,6.9,-,N/A,,Clear,140,2013-05-16 18:55:00
3:15 PM,80.6,60.8,51,30.08,10.0,South,6.9,-,N/A,,Scattered Clouds,180,2013-05-16 19:15:00
3:35 PM,80.6,62.6,54,30.07,10.0,SSW,9.2,-,N/A,,Scattered Clouds,200,2013-05-16 19:35:00
3:53 PM,82.0,64.9,56,30.04,-9999.0,South,6.9,-,N/A,,Unknown,170,2013-05-16 19:53:00
3:55 PM,78.8,64.4,61,30.06,10.0,South,5.8,-,N/A,,Scattered Clouds,170,2013-05-16 19:55:00
4:15 PM,78.8,64.4,61,30.06,10.0,SW,9.2,-,N/A,,Clear,230,2013-05-16 20:15:00
4:35 PM,80.6,64.4,58,30.06,7.0,SW,11.5,16.1,N/A,,Clear,220,2013-05-16 20:35:00
4:53 PM,80.1,64.9,60,30.04,-9999.0,SW,9.2,-,N/A,,Unknown,230,2013-05-16 20:53:00
4:55 PM,78.8,64.4,61,30.06,10.0,SW,9.2,-,N/A,,Clear,230,2013-05-16 20:55:00
5:15 PM,78.8,64.4,61,30.06,10.0,SW,9.2,-,N/A,,Scattered Clouds,230,2013-05-16 21:15:00
5:35 PM,78.8,64.4,61,30.05,10.0,SSW,10.4,-,N/A,,Scattered Clouds,210,2013-05-16 21:35:00
5:53 PM,78.1,64.9,64,30.04,-9999.0,SW,11.5,-,N/A,,Unknown,230,2013-05-16 21:53:00
5:55 PM,77.0,64.4,65,30.06,10.0,WSW,10.4,-,N/A,,Clear,240,2013-05-16 21:55:00
6:15 PM,77.0,64.4,65,30.05,10.0,SW,9.2,-,N/A,,Clear,230,2013-05-16 22:15:00
6:35 PM,77.0,64.4,65,30.05,10.0,SSW,10.4,-,N/A,,Clear,210,2013-05-16 22:35:00
6:53 PM,78.1,66.0,66,30.04,-9999.0,SW,10.4,-,N/A,,Unknown,230,2013-05-16 22:53:00
6:55 PM,75.2,64.4,69,30.05,10.0,SW,8.1,-,N/A,,Clear,230,2013-05-16 22:55:00
7:15 PM,75.2,64.4,69,30.05,10.0,SW,8.1,-,N/A,,Clear,230,2013-05-16 23:15:00
7:35 PM,73.4,64.4,73,30.05,10.0,WSW,8.1,-,N/A,,Clear,240,2013-05-16 23:35:00
7:53 PM,75.0,66.0,73,30.03,-9999.0,SW,8.1,-,N/A,,Unknown,220,2013-05-16 23:53:00
7:55 PM,73.4,64.4,73,30.05,10.0,SW,5.8,-,N/A,,Clear,230,2013-05-16 23:55:00
8:15 PM,71.6,64.4,78,30.05,10.0,SW,3.5,-,N/A,,Clear,230,2013-05-17 00:15:00
8:35 PM,71.6,64.4,78,30.05,10.0,WSW,4.6,-,N/A,,Clear,240,2013-05-17 00:35:00
8:53 PM,72.0,66.0,81,30.04,-9999.0,WSW,4.6,-,0.01,,Unknown,240,2013-05-17 00:53:00
8:55 PM,69.8,64.4,83,30.05,10.0,WSW,3.5,-,N/A,,Clear,240,2013-05-17 00:55:00
9:15 PM,69.8,64.4,83,30.05,10.0,Calm,Calm,-,N/A,,Clear,0,2013-05-17 01:15:00
9:35 PM,68.0,64.4,88,30.06,10.0,Calm,Calm,-,N/A,,Clear,0,2013-05-17 01:35:00
9:53 PM,69.1,66.0,90,30.05,-9999.0,Calm,Calm,-,N/A,,Unknown,0,2013-05-17 01:53:00
9:55 PM,68.0,64.4,88,30.06,10.0,Calm,Calm,-,N/A,,Clear,0,2013-05-17 01:55:00
10:15 PM,68.0,64.4,88,30.07,7.0,Calm,Calm,-,N/A,,Clear,0,2013-05-17 02:15:00
10:35 PM,66.2,64.4,94,30.07,3.0,Calm,Calm,-,N/A,,Clear,0,2013-05-17 02:35:00
10:53 PM,68.0,64.9,90,30.06,-9999.0,Calm,Calm,-,0.01,,Unknown,0,2013-05-17 02:53:00
10:55 PM,66.2,64.4,94,30.07,5.0,Calm,Calm,-,N/A,,Clear,0,2013-05-17 02:55:00
11:15 PM,66.2,64.4,94,30.08,2.5,Calm,Calm,-,N/A,,Clear,0,2013-05-17 03:15:00
11:35 PM,64.4,64.4,100,30.07,0.8,Calm,Calm,-,N/A,,Mist,0,2013-05-17 03:35:00
11:53 PM,66.0,64.0,93,30.06,-9999.0,Calm,Calm,-,N/A,,Unknown,0,2013-05-17 03:53:00
11:55 PM,64.4,62.6,94,30.08,0.5,Calm,Calm,-,N/A,Fog,Fog,0,2013-05-17 03:55:00